Aérodrome :
LOGIN :

S'inscrire | Disclaimer

   EN    FR    IT 

 










Légende :    VFR   VFR Marginal   IFR   IFR Intensif   IFR Très Intensif
Visi : 
Plafond : 
>= 8 km
>= 3000ft
5 à 8 km
1000 à 3000 ft
1500m à 5 km
500 à 1000 ft
800 à 1500m
200 à 500 ft
< 800m
< 200 ft
Symboles :   Orages  Brouillard  Fortes neiges  Fortes précipitations  Vent > 20 kt
SIGMETs :   Divers  Orages  Givrage  Turbulence  Onde Orograph.  Cendres Volcan.






- Altitude de l'aérodrome : 1306 ft
- Code IATA : ACH


LSZR - Alten Rhein

DERNIER METAR :
  • 161650Z 12002KT 5000 FEW012 SCT027 M06/M06 Q1024 NOSIG RMK N

METARs EXPIRÉS :
  • 161620Z 21002KT 5000 FEW012 SCT027 M04/M04 Q1024 NOSIG RMK M
  • 161550Z VRB02KT 9999 SCT012 M03/M03 Q1024 NOSIG RMK L
  • 161520Z AUTO VRB02KT 9000 BKN011 M03/M04 Q1024
  • 161450Z AUTO VRB02KT 9999 BKN011 M02/M04 Q1024
  • 161420Z 33004KT 9999 BKN012 M02/M04 Q1024 NOSIG RMK J

TAF TAF LSZR
Valide du 16 à 15h jusqu'au 17 à 00h UTC


161425Z 1615/1624 VRB02KT 9999 BKN013
PROB40
TEMPO 1615/1620 SCT015
TEMPO 1623/1624 2000 -SN BKN010
ATIS : +41 71 858 51 66



MET'MAP, la Météo Aéronautique d'un coup d'oeil ! - Copyright ORBIFLY Décembre 2007 - Disclaimer

ORBIFLY MET'MAP TEAM :

Programmation & Développement : Alexandra Zaïnal
Sur une idée originale de : Baudouin d'Aumeries
Assistance à la programmation : Marc-Olivier Méhu
Soutien technique & logistique : Manuel Goepfert

Contact : metmap@orbifly.com




SOURCES & CREDITS :

   NOAA